Air Sicilia Virtual Airways - Route

Air Sicilia Virtual Airways - SIC106L

( IT ) LICG
Pantelleria Airport
PANTELLERIA ( PNL )
plane_to ( TN ) DTTG
Gabès Matmata International Airport
GABèS ( GAE )
Mediterraneo TOUR VFR - LEG: 26

AIRPORT NEAR NAVIGATION AIDS

Type Name Frequency
VOR-DME Pantelleria 116100 KHZ
NDB Pantelleria 335 KHZ

METAR / TAF
LICG 191650Z 03006KT 350V070 CAVOK 16/11 Q1011

RUNWAY INFORMATION

Runway Runway length Runway width Runway elevation Runway displaced threshold Runway heading
03 4003 98 620 0 28
21 4003 98 591 0 208
08 5495 148 635 0 76
26 5495 148 603 0 256

AIRPORT FREQUENCIES

Type Name Frequency
TWR TWR 118.45 MHZ

AIRPORT NEAR NAVIGATION AIDS

Type Name Frequency
VOR-DME Gabes 115400 KHZ

METAR / TAF
DTTG 191600Z 08013KT 040V100 9999 SCT030 22/13 Q1009 NOSIG

RUNWAY INFORMATION

Runway Runway length Runway width Runway elevation Runway displaced threshold Runway heading
06 3702 82 0 0 60.7
24 3702 82 0 0 240.7

AIRPORT FREQUENCIES

Type Name Frequency

Flightplan

passando per Mellita

Air Sicilia Virtual Airways Fleets

AVAILABLE AIRCRAFTS for route at this time in Pantelleria Airport
C172 - Cessna 172 Skyhawk
( US ) Cessna

Aircraft in fleet: 13

264 NM

Distance in nautical miles.

€ 120,00

Ticket price for this flight.

Nr. 26

Leg



12-11-2018
Aerosoft Airport Rio de Janeiro International V2.0 XP

L'Aeroporto Internazionale di Rio de Janeiro-Galeão (IATA: GIG, ICAO: SBGL), costruito nel 1952 nel quartiere di Ilha do Governador ed intitolato al musicista Antônio Carlos Jobim, è il principale aeroporto internazio ....


15-10-2018
Aerosoft A320 Family professional

La gamma di aeromobili A320 è una delle più comuni nei cieli. Questi aerei di linea a doppio-getto a corto e medio raggio si sono dimostrati convenienti, affidabili e prontamente disponibili, rendendoli le opzioni migl ....


10-10-2018
Motore critico ( Critical Engine )

Il motore critico di un velivolo ad ala fissa multi-motore è il motore che, in caso di guasto, influirebbe negativamente sulle prestazioni o sulla capacità di manovra di un aereo. Sui velivoli ad elica, vi è un ....


04-10-2018
Aerosoft Dortmund XP

Scopri il centro della regione della Ruhr su XPlane 11 - lo scenario Dortmund XP è una ricostruzione completa della città di Dortmund per il simulatore di volo targato Laminar. Oltre all'intera area urbana di Dortmu ....


07-08-2018
Aerosoft Professional Flight Planner PFPX

PFPX - Professional Flight Planner X - è un nuovo ed innovativo strumento di pianificazione del volo sviluppato da piloti e dispatcher del mondo reale. È un'aggiunta preziosa e realistica alla tua esperienza di simulaz ....